Manoa — KDBG — position and weather

sailwx.info

Track history (hours):
 
Tides and Currents Weather Stations Pressure Air Temp Water Temp Dewpoint Dewpoint Depression Visibility Wind Speed Wind Dir Waves Ship Positions

Manoa

Owner: MATSON NAVIGATION CO, RALEIGH, NC. More information available from US FCC via Universal Licensing System and Coast Guard Vessel Documentation Center.

Last reported at 2016-May-27 12:00 UTC. Time now 2016-May-30 16:26 UTC.
Position N 26°18' W 149°30'.

Type: Cargo ship. MMSI: 366562000.

Wind from 120 at 16 knots

Barometer 1021.9 mb
Air temperature 22.2 ° C
Visibility: greater than 10.8 NM
Dewpoint 16.8 ° C
Water temperature 25.3 ° C

Date/timePositionNaut miles runAvg speedWind from/ knotsBaromVisibWave heightAir tempDewpointWater temp
2016-May-27 12:00N 26°18' W 149°30'24620.5 120 / 161021.910.8 22.216.825.3
2016-May-27 00:00N 28°30' W 145°36'   120 / 171024.910.8 2.022.216.824.3
2016-May-24 12:33N 37°31' W 123°15'1717.6
2016-May-24 11:34N 37°39' W 122°55'1615.5
2016-May-24 10:33N 37°46' W 122°37'1413.7
2016-May-24 09:34N 37°48' W 122°20'2 1.7
2016-May-24 08:34N 37°48' W 122°18'0 0.0
2016-May-24 07:33N 37°48' W 122°18'0 0.0
2016-May-24 06:33N 37°48' W 122°18'0 0.0
2016-May-24 05:33N 37°48' W 122°18'0 0.0
2016-May-24 04:30N 37°48' W 122°18'0 0.0
2016-May-24 03:33N 37°48' W 122°18'0 0.0
2016-May-24 02:33N 37°48' W 122°18'0 0.0
2016-May-24 01:33N 37°48' W 122°18'0 0.0
2016-May-24 00:33N 37°48' W 122°18'0 0.0
2016-May-23 23:33N 37°48' W 122°18'0 0.0
2016-May-23 22:33N 37°48' W 122°18'0 0.0
2016-May-23 21:33N 37°48' W 122°18'0 0.0
2016-May-23 20:33N 37°48' W 122°18'0 0.0
2016-May-23 19:33N 37°48' W 122°18'0 0.0
2016-May-23 18:33N 37°48' W 122°18'0 0.0
2016-May-23 17:33N 37°48' W 122°18'0 0.0
2016-May-23 16:33N 37°48' W 122°18'7 6.9
2016-May-23 15:33N 37°49' W 122°27'1313.3
2016-May-23 14:33N 37°46' W 122°43'1615.8
2016-May-23 13:33N 37°53' W 123°01'1818.2
2016-May-23 12:34N 38°04' W 123°19'1818.4
2016-May-23 11:34N 38°15' W 123°38'1817.7
2016-May-23 10:33N 38°23' W 123°58'42621.2
2016-May-22 14:28N 45°26' W 125°16'2022.3
2016-May-22 13:33N 45°46' W 125°17'2222.1
2016-May-22 12:33N 46°08' W 125°18'2222.3
2016-May-22 11:33N 46°30' W 125°19'2222.2
2016-May-22 10:34N 46°53' W 125°20'9521.4
2016-May-22 06:08N 48°27' W 125°05'3920.9
2016-May-22 04:16N 48°21' W 124°08'1622.2
2016-May-22 03:34N 48°17' W 123°44'1616.1
2016-May-22 02:32N 48°09' W 123°23'1515.0
2016-May-22 01:32N 48°12' W 123°01'1818.6
2016-May-22 00:33N 48°02' W 122°38'1919.4
2016-May-21 23:34N 47°45' W 122°26'1010.2
2016-May-21 22:33N 47°35' W 122°21'0 0.2
2016-May-21 21:34N 47°35' W 122°21'0 0.0
2016-May-21 20:32N 47°35' W 122°21'0 0.0
2016-May-21 19:32N 47°35' W 122°21'0 0.0
2016-May-21 18:32N 47°35' W 122°21'0 0.0
2016-May-21 17:33N 47°35' W 122°21'0 0.0
2016-May-21 16:32N 47°35' W 122°21'0 0.0
2016-May-21 15:33N 47°35' W 122°21'0 0.0
2016-May-21 14:33N 47°35' W 122°21'0 0.0
2016-May-21 13:33N 47°35' W 122°21'0 0.0
2016-May-21 12:33N 47°35' W 122°21'0 0.0
2016-May-21 11:33N 47°35' W 122°21'0 0.0
2016-May-21 10:33N 47°35' W 122°21'0 0.0
2016-May-21 09:33N 47°35' W 122°21'0 0.0
2016-May-21 08:32N 47°35' W 122°21'0 0.0
2016-May-21 07:32N 47°35' W 122°21'0 0.0
2016-May-21 06:33N 47°35' W 122°21'0 0.0
2016-May-21 05:32N 47°35' W 122°21'0 0.0
2016-May-21 04:33N 47°35' W 122°21'0 0.0
2016-May-21 03:32N 47°35' W 122°21'0 0.0
2016-May-21 02:33N 47°35' W 122°21'0 0.0
2016-May-21 01:32N 47°35' W 122°21'0 0.0
2016-May-21 00:32N 47°35' W 122°21'0 0.0
2016-May-20 23:33N 47°35' W 122°21'0 0.0
2016-May-20 22:33N 47°35' W 122°21'0 0.0
2016-May-20 21:32N 47°35' W 122°21'0 0.0
2016-May-20 20:32N 47°35' W 122°21'0 0.0
2016-May-20 19:32N 47°35' W 122°21'1 0.7
2016-May-20 18:33N 47°35' W 122°21'7 6.6
2016-May-20 17:34N 47°40' W 122°28'1918.3
2016-May-20 16:33N 47°58' W 122°35'1717.5
2016-May-20 15:34N 48°11' W 122°51'1817.9
2016-May-20 14:33N 48°11' W 123°18'1111.0
2016-May-20 13:34N 48°13' W 123°34'1616.0
2016-May-20 12:33N 48°14' W 123°58'4120.5
2016-May-20 10:33N 48°29' W 124°56'2221.6
2016-May-20 09:33N 48°20' W 125°26'  
Track history (hours):
 
Tides and Currents Weather Stations Pressure Air Temp Water Temp Dewpoint Dewpoint Depression Visibility Wind Speed Wind Dir Waves Ship Positions

Manoa

Owner: MATSON NAVIGATION CO, RALEIGH, NC. More information available from US FCC via Universal Licensing System and Coast Guard Vessel Documentation Center.

Last reported at 2016-May-27 12:00 UTC. Time now 2016-May-30 16:26 UTC.
Position N 26°18' W 149°30'.

Type: Cargo ship. MMSI: 366562000.

Wind from 120 at 16 knots

Barometer 1021.9 mb
Air temperature 22.2 ° C
Visibility: greater than 10.8 NM
Dewpoint 16.8 ° C
Water temperature 25.3 ° C

Date/timePositionNaut miles runAvg speedWind from/ knotsBaromVisibWave heightAir tempDewpointWater temp
2016-May-27 12:00N 26°18' W 149°30'24620.5 120 / 161021.910.8 22.216.825.3
2016-May-27 00:00N 28°30' W 145°36'   120 / 171024.910.8 2.022.216.824.3
2016-May-24 12:33N 37°31' W 123°15'1717.6
2016-May-24 11:34N 37°39' W 122°55'1615.5
2016-May-24 10:33N 37°46' W 122°37'1413.7
2016-May-24 09:34N 37°48' W 122°20'2 1.7
2016-May-24 08:34N 37°48' W 122°18'0 0.0
2016-May-24 07:33N 37°48' W 122°18'0 0.0
2016-May-24 06:33N 37°48' W 122°18'0 0.0
2016-May-24 05:33N 37°48' W 122°18'0 0.0
2016-May-24 04:30N 37°48' W 122°18'0 0.0
2016-May-24 03:33N 37°48' W 122°18'0 0.0
2016-May-24 02:33N 37°48' W 122°18'0 0.0
2016-May-24 01:33N 37°48' W 122°18'0 0.0
2016-May-24 00:33N 37°48' W 122°18'0 0.0
2016-May-23 23:33N 37°48' W 122°18'0 0.0
2016-May-23 22:33N 37°48' W 122°18'0 0.0
2016-May-23 21:33N 37°48' W 122°18'0 0.0
2016-May-23 20:33N 37°48' W 122°18'0 0.0
2016-May-23 19:33N 37°48' W 122°18'0 0.0
2016-May-23 18:33N 37°48' W 122°18'0 0.0
2016-May-23 17:33N 37°48' W 122°18'0 0.0
2016-May-23 16:33N 37°48' W 122°18'7 6.9
2016-May-23 15:33N 37°49' W 122°27'1313.3
2016-May-23 14:33N 37°46' W 122°43'1615.8
2016-May-23 13:33N 37°53' W 123°01'1818.2
2016-May-23 12:34N 38°04' W 123°19'1818.4
2016-May-23 11:34N 38°15' W 123°38'1817.7
2016-May-23 10:33N 38°23' W 123°58'42621.2
2016-May-22 14:28N 45°26' W 125°16'2022.3
2016-May-22 13:33N 45°46' W 125°17'2222.1
2016-May-22 12:33N 46°08' W 125°18'2222.3
2016-May-22 11:33N 46°30' W 125°19'2222.2
2016-May-22 10:34N 46°53' W 125°20'9521.4
2016-May-22 06:08N 48°27' W 125°05'3920.9
2016-May-22 04:16N 48°21' W 124°08'1622.2
2016-May-22 03:34N 48°17' W 123°44'1616.1
2016-May-22 02:32N 48°09' W 123°23'1515.0
2016-May-22 01:32N 48°12' W 123°01'1818.6
2016-May-22 00:33N 48°02' W 122°38'1919.4
2016-May-21 23:34N 47°45' W 122°26'1010.2
2016-May-21 22:33N 47°35' W 122°21'0 0.2
2016-May-21 21:34N 47°35' W 122°21'0 0.0
2016-May-21 20:32N 47°35' W 122°21'0 0.0
2016-May-21 19:32N 47°35' W 122°21'0 0.0
2016-May-21 18:32N 47°35' W 122°21'0 0.0
2016-May-21 17:33N 47°35' W 122°21'0 0.0
2016-May-21 16:32N 47°35' W 122°21'0 0.0
2016-May-21 15:33N 47°35' W 122°21'0 0.0
2016-May-21 14:33N 47°35' W 122°21'0 0.0
2016-May-21 13:33N 47°35' W 122°21'0 0.0
2016-May-21 12:33N 47°35' W 122°21'0 0.0
2016-May-21 11:33N 47°35' W 122°21'0 0.0
2016-May-21 10:33N 47°35' W 122°21'0 0.0
2016-May-21 09:33N 47°35' W 122°21'0 0.0
2016-May-21 08:32N 47°35' W 122°21'0 0.0
2016-May-21 07:32N 47°35' W 122°21'0 0.0
2016-May-21 06:33N 47°35' W 122°21'0 0.0
2016-May-21 05:32N 47°35' W 122°21'0 0.0
2016-May-21 04:33N 47°35' W 122°21'0 0.0
2016-May-21 03:32N 47°35' W 122°21'0 0.0
2016-May-21 02:33N 47°35' W 122°21'0 0.0
2016-May-21 01:32N 47°35' W 122°21'0 0.0
2016-May-21 00:32N 47°35' W 122°21'0 0.0
2016-May-20 23:33N 47°35' W 122°21'0 0.0
2016-May-20 22:33N 47°35' W 122°21'0 0.0
2016-May-20 21:32N 47°35' W 122°21'0 0.0
2016-May-20 20:32N 47°35' W 122°21'0 0.0
2016-May-20 19:32N 47°35' W 122°21'1 0.7
2016-May-20 18:33N 47°35' W 122°21'7 6.6
2016-May-20 17:34N 47°40' W 122°28'1918.3
2016-May-20 16:33N 47°58' W 122°35'1717.5
2016-May-20 15:34N 48°11' W 122°51'1817.9
2016-May-20 14:33N 48°11' W 123°18'1111.0
2016-May-20 13:34N 48°13' W 123°34'1616.0
2016-May-20 12:33N 48°14' W 123°58'4120.5
2016-May-20 10:33N 48°29' W 124°56'2221.6
2016-May-20 09:33N 48°20' W 125°26'  

Dump ship's entire track history